Check out our new PWSWeather beta!
PWSweather.com
Personal Weather Stations
Station Observations
IONTARIO88
Lincoln, ON L0R

Lincoln, ON L0R

Lat: 43.1763563, Lon: -79.4719525

Elevation: 297

Station Type: Davis Vantage Pro 2 Plus

http://www.beamsvillewx.ca

High Low Average
Temperature 77.7°F25.4°C 65.1°F18.4°C 70.1°F21.2°C
Dew Point 71.3°F21.8°C 58.2°F14.6°C 62.9°F17.2°C
Winds 11.0 mph 17.7 kmh Calm Calm 3.0 mph SW4.8 kmh SW
Wind Gusts 25.0 mph40.2 kmh 1.0 mph1.6 kmh 9.0 mph14.5 kmh
Humidity 92% 60% 79%
Pressure 29.72 in1006.4 mb 29.59 in1002.0 mb -
Precipitation 0.79 in20.1 mm - -
Hour Temp Dew Point Humidity Winds Wind Gusts Pressure Precip Precip Rate Daily Precip Total
12:00 AM 69.8°F21.0°C 64.1°F17.8°C 82% Calm Calm 3.0 mph4.8 kmh 29.68 in1005.1 mb 0.00 in0.0 mm 0.00 in0.0 mm 0.00 in0.0 mm
12:15 AM 69.4°F20.8°C 63.4°F17.4°C 81% 1.0 mph SSW1.6 kmh SSW 3.0 mph4.8 kmh 29.68 in1005.1 mb 0.00 in0.0 mm 0.00 in0.0 mm 0.00 in0.0 mm
12:30 AM 69.1°F20.6°C 63.0°F17.2°C 81% 1.0 mph SSW1.6 kmh SSW 4.0 mph6.4 kmh 29.68 in1005.1 mb 0.00 in0.0 mm 0.00 in0.0 mm 0.00 in0.0 mm
12:45 AM 68.7°F20.4°C 61.6°F16.4°C 78% 1.0 mph SSW1.6 kmh SSW 4.0 mph6.4 kmh 29.68 in1005.1 mb 0.00 in0.0 mm 0.00 in0.0 mm 0.00 in0.0 mm
01:00 AM 68.7°F20.4°C 61.2°F16.2°C 77% Calm Calm 3.0 mph4.8 kmh 29.68 in1005.1 mb 0.00 in0.0 mm 0.00 in0.0 mm 0.00 in0.0 mm
01:15 AM 68.2°F20.1°C 60.3°F15.7°C 76% 1.0 mph SSW1.6 kmh SSW 4.0 mph6.4 kmh 29.68 in1005.1 mb 0.00 in0.0 mm 0.00 in0.0 mm 0.00 in0.0 mm
01:30 AM 67.6°F19.8°C 60.5°F15.8°C 78% 1.0 mph SSW1.6 kmh SSW 3.0 mph4.8 kmh 29.68 in1005.1 mb 0.00 in0.0 mm 0.00 in0.0 mm 0.00 in0.0 mm
01:45 AM 67.3°F19.6°C 60.5°F15.8°C 79% 1.0 mph SSW1.6 kmh SSW 5.0 mph8.0 kmh 29.68 in1005.1 mb 0.00 in0.0 mm 0.00 in0.0 mm 0.00 in0.0 mm
02:00 AM 67.1°F19.5°C 61.1°F16.2°C 81% 1.0 mph SSW1.6 kmh SSW 4.0 mph6.4 kmh 29.68 in1005.1 mb 0.00 in0.0 mm 0.00 in0.0 mm 0.00 in0.0 mm
02:15 AM 66.7°F19.3°C 61.1°F16.2°C 82% Calm Calm 2.0 mph3.2 kmh 29.68 in1005.1 mb 0.00 in0.0 mm 0.00 in0.0 mm 0.00 in0.0 mm
02:30 AM 66.6°F19.2°C 60.9°F16.1°C 82% Calm Calm 2.0 mph3.2 kmh 29.67 in1004.7 mb 0.00 in0.0 mm 0.00 in0.0 mm 0.00 in0.0 mm
02:45 AM 66.7°F19.3°C 60.7°F15.9°C 81% 2.0 mph SSW3.2 kmh SSW 7.0 mph11.3 kmh 29.66 in1004.4 mb 0.00 in0.0 mm 0.00 in0.0 mm 0.00 in0.0 mm
03:00 AM 66.7°F19.3°C 60.4°F15.8°C 80% 4.0 mph S6.4 kmh S 8.0 mph12.9 kmh 29.66 in1004.4 mb 0.00 in0.0 mm 0.00 in0.0 mm 0.00 in0.0 mm
03:15 AM 66.7°F19.3°C 60.0°F15.6°C 79% 3.0 mph S4.8 kmh S 7.0 mph11.3 kmh 29.65 in1004.1 mb 0.00 in0.0 mm 0.00 in0.0 mm 0.00 in0.0 mm
03:30 AM 66.6°F19.2°C 60.2°F15.7°C 80% 3.0 mph S4.8 kmh S 7.0 mph11.3 kmh 29.65 in1004.1 mb 0.00 in0.0 mm 0.00 in0.0 mm 0.00 in0.0 mm
03:45 AM 66.4°F19.1°C 60.7°F15.9°C 82% 3.0 mph S4.8 kmh S 7.0 mph11.3 kmh 29.65 in1004.1 mb 0.00 in0.0 mm 0.00 in0.0 mm 0.00 in0.0 mm
04:00 AM 66.4°F19.1°C 60.7°F15.9°C 82% 4.0 mph S6.4 kmh S 8.0 mph12.9 kmh 29.64 in1003.7 mb 0.00 in0.0 mm 0.00 in0.0 mm 0.00 in0.0 mm
04:15 AM 66.2°F19.0°C 61.2°F16.2°C 84% 4.0 mph SSW6.4 kmh SSW 9.0 mph14.5 kmh 29.65 in1004.1 mb 0.00 in0.0 mm 0.00 in0.0 mm 0.00 in0.0 mm
04:30 AM 66.6°F19.2°C 61.6°F16.4°C 84% 5.0 mph SSW8.0 kmh SSW 12.0 mph19.3 kmh 29.64 in1003.7 mb 0.00 in0.0 mm 0.00 in0.0 mm 0.00 in0.0 mm
04:45 AM 66.9°F19.4°C 61.6°F16.4°C 83% 5.0 mph SSW8.0 kmh SSW 10.0 mph16.1 kmh 29.64 in1003.7 mb 0.00 in0.0 mm 0.00 in0.0 mm 0.00 in0.0 mm
05:00 AM 67.3°F19.6°C 62.3°F16.8°C 84% 5.0 mph S8.0 kmh S 11.0 mph17.7 kmh 29.64 in1003.7 mb 0.00 in0.0 mm 0.00 in0.0 mm 0.00 in0.0 mm
05:15 AM 67.3°F19.6°C 62.6°F17.0°C 85% 4.0 mph SSW6.4 kmh SSW 10.0 mph16.1 kmh 29.64 in1003.7 mb 0.00 in0.0 mm 0.00 in0.0 mm 0.00 in0.0 mm
05:30 AM 66.9°F19.4°C 62.3°F16.8°C 85% 5.0 mph S8.0 kmh S 11.0 mph17.7 kmh 29.64 in1003.7 mb 0.00 in0.0 mm 0.00 in0.0 mm 0.00 in0.0 mm
05:45 AM 67.3°F19.6°C 63.3°F17.4°C 87% 5.0 mph SSW8.0 kmh SSW 11.0 mph17.7 kmh 29.64 in1003.7 mb 0.00 in0.0 mm 0.00 in0.0 mm 0.00 in0.0 mm
06:00 AM 67.8°F19.9°C 64.5°F18.1°C 89% 5.0 mph SSW8.0 kmh SSW 10.0 mph16.1 kmh 29.63 in1003.4 mb 0.00 in0.0 mm 0.00 in0.0 mm 0.00 in0.0 mm
06:15 AM 68.5°F20.3°C 65.2°F18.4°C 89% 6.0 mph S9.7 kmh S 12.0 mph19.3 kmh 29.62 in1003.0 mb 0.00 in0.0 mm 0.00 in0.0 mm 0.00 in0.0 mm
06:30 AM 69.6°F20.9°C 66.6°F19.2°C 90% 4.0 mph S6.4 kmh S 9.0 mph14.5 kmh 29.62 in1003.0 mb 0.00 in0.0 mm 0.00 in0.0 mm 0.00 in0.0 mm
06:45 AM 70.9°F21.6°C 67.8°F19.9°C 90% 4.0 mph S6.4 kmh S 9.0 mph14.5 kmh 29.62 in1003.0 mb 0.00 in0.0 mm 0.00 in0.0 mm 0.00 in0.0 mm
07:00 AM 71.8°F22.1°C 68.4°F20.2°C 89% 3.0 mph SSW4.8 kmh SSW 9.0 mph14.5 kmh 29.62 in1003.0 mb 0.00 in0.0 mm 0.00 in0.0 mm 0.00 in0.0 mm
07:15 AM 72.9°F22.7°C 68.8°F20.4°C 87% 4.0 mph S6.4 kmh S 14.0 mph22.5 kmh 29.61 in1002.7 mb 0.00 in0.0 mm 0.00 in0.0 mm 0.00 in0.0 mm
07:30 AM 73.9°F23.3°C 69.5°F20.8°C 86% 4.0 mph S6.4 kmh S 14.0 mph22.5 kmh 29.61 in1002.7 mb 0.00 in0.0 mm 0.00 in0.0 mm 0.00 in0.0 mm
07:45 AM 75.2°F24.0°C 70.0°F21.1°C 84% 5.0 mph S8.0 kmh S 12.0 mph19.3 kmh 29.61 in1002.7 mb 0.00 in0.0 mm 0.00 in0.0 mm 0.00 in0.0 mm
08:00 AM 76.3°F24.6°C 70.7°F21.5°C 83% 6.0 mph SSW9.7 kmh SSW 17.0 mph27.4 kmh 29.61 in1002.7 mb 0.00 in0.0 mm 0.00 in0.0 mm 0.00 in0.0 mm
08:15 AM 76.8°F24.9°C 71.3°F21.8°C 83% 4.0 mph S6.4 kmh S 14.0 mph22.5 kmh 29.59 in1002.0 mb 0.00 in0.0 mm 0.00 in0.0 mm 0.00 in0.0 mm
08:30 AM 77.4°F25.2°C 71.1°F21.7°C 81% 5.0 mph SSW8.0 kmh SSW 13.0 mph20.9 kmh 29.59 in1002.0 mb 0.00 in0.0 mm 0.00 in0.0 mm 0.00 in0.0 mm
08:45 AM 76.3°F24.6°C 68.2°F20.1°C 76% 5.0 mph WSW8.0 kmh WSW 20.0 mph32.2 kmh 29.61 in1002.7 mb 0.07 in1.8 mm 0.28 in7.1 mm 0.07 in1.8 mm
09:00 AM 68.5°F20.3°C 64.5°F18.1°C 87% 5.0 mph SW8.0 kmh SW 12.0 mph19.3 kmh 29.61 in1002.7 mb 0.50 in12.7 mm 0.57 in14.5 mm 0.50 in12.7 mm
09:15 AM 66.7°F19.3°C 63.7°F17.6°C 90% 2.0 mph SSW3.2 kmh SSW 9.0 mph14.5 kmh 29.61 in1002.7 mb 0.53 in13.5 mm 0.12 in3.0 mm 0.53 in13.5 mm
09:30 AM 66.7°F19.3°C 64.0°F17.8°C 91% 2.0 mph SSW3.2 kmh SSW 7.0 mph11.3 kmh 29.60 in1002.4 mb 0.54 in13.7 mm 0.04 in1.0 mm 0.54 in13.7 mm
09:45 AM 66.6°F19.2°C 64.2°F17.9°C 92% 2.0 mph SSW3.2 kmh SSW 7.0 mph11.3 kmh 29.60 in1002.4 mb 0.46 in11.7 mm 0.00 in0.0 mm 0.54 in13.7 mm
10:00 AM 66.4°F19.1°C 64.0°F17.8°C 92% 1.0 mph S1.6 kmh S 7.0 mph11.3 kmh 29.60 in1002.4 mb 0.05 in1.3 mm 0.00 in0.0 mm 0.55 in14.0 mm
10:15 AM 66.4°F19.1°C 64.0°F17.8°C 92% 3.0 mph S4.8 kmh S 12.0 mph19.3 kmh 29.61 in1002.7 mb 0.02 in0.5 mm 0.00 in0.0 mm 0.55 in14.0 mm
10:30 AM 66.9°F19.4°C 64.5°F18.1°C 92% 5.0 mph SSW8.0 kmh SSW 12.0 mph19.3 kmh 29.60 in1002.4 mb 0.01 in0.3 mm 0.00 in0.0 mm 0.55 in14.0 mm
10:45 AM 68.2°F20.1°C 65.8°F18.8°C 92% 6.0 mph SSW9.7 kmh SSW 15.0 mph24.1 kmh 29.61 in1002.7 mb 0.01 in0.3 mm 0.00 in0.0 mm 0.55 in14.0 mm
02:15 PM 77.7°F25.4°C 67.2°F19.6°C 70% 6.0 mph W9.7 kmh W 12.0 mph19.3 kmh 29.60 in1002.4 mb 0.00 in0.0 mm 0.00 in0.0 mm 0.55 in14.0 mm
02:30 PM 69.4°F20.8°C 64.4°F18.0°C 84% 7.0 mph WSW11.3 kmh WSW 13.0 mph20.9 kmh 29.62 in1003.0 mb 0.09 in2.3 mm 0.36 in9.1 mm 0.65 in16.5 mm
02:45 PM 68.2°F20.1°C 64.8°F18.2°C 89% 3.0 mph W4.8 kmh W 8.0 mph12.9 kmh 29.63 in1003.4 mb 0.09 in2.3 mm 0.00 in0.0 mm 0.65 in16.5 mm
03:00 PM 65.7°F18.7°C 61.0°F16.1°C 85% 11.0 mph WNW17.7 kmh WNW 25.0 mph40.2 kmh 29.62 in1003.0 mb 0.23 in5.8 mm 0.19 in4.8 mm 0.78 in19.8 mm
03:15 PM 65.1°F18.4°C 62.1°F16.7°C 90% 3.0 mph WSW4.8 kmh WSW 8.0 mph12.9 kmh 29.61 in1002.7 mb 0.23 in5.8 mm 0.00 in0.0 mm 0.78 in19.8 mm
03:30 PM 70.2°F21.2°C 67.4°F19.7°C 91% 5.0 mph WSW8.0 kmh WSW 12.0 mph19.3 kmh 29.61 in1002.7 mb 0.13 in3.3 mm 0.00 in0.0 mm 0.78 in19.8 mm
03:45 PM 74.5°F23.6°C 69.7°F20.9°C 85% 5.0 mph W8.0 kmh W 10.0 mph16.1 kmh 29.61 in1002.7 mb 0.13 in3.3 mm 0.00 in0.0 mm 0.78 in19.8 mm
04:00 PM 76.6°F24.8°C 69.3°F20.7°C 78% 7.0 mph W11.3 kmh W 15.0 mph24.1 kmh 29.61 in1002.7 mb 0.00 in0.0 mm 0.00 in0.0 mm 0.78 in19.8 mm
04:15 PM 77.5°F25.3°C 70.1°F21.2°C 78% 6.0 mph WNW9.7 kmh WNW 14.0 mph22.5 kmh 29.61 in1002.7 mb 0.00 in0.0 mm 0.00 in0.0 mm 0.78 in19.8 mm
04:30 PM 77.2°F25.1°C 69.0°F20.6°C 76% 6.0 mph NW9.7 kmh NW 13.0 mph20.9 kmh 29.61 in1002.7 mb 0.00 in0.0 mm 0.00 in0.0 mm 0.78 in19.8 mm
04:45 PM 77.2°F25.1°C 67.0°F19.4°C 71% 7.0 mph WNW11.3 kmh WNW 13.0 mph20.9 kmh 29.61 in1002.7 mb 0.00 in0.0 mm 0.00 in0.0 mm 0.78 in19.8 mm
05:00 PM 77.4°F25.2°C 64.7°F18.2°C 65% 7.0 mph NW11.3 kmh NW 17.0 mph27.4 kmh 29.62 in1003.0 mb 0.00 in0.0 mm 0.00 in0.0 mm 0.78 in19.8 mm
05:30 PM 77.2°F25.1°C 63.2°F17.3°C 62% 7.0 mph WNW11.3 kmh WNW 15.0 mph24.1 kmh 29.62 in1003.0 mb 0.01 in0.3 mm 0.02 in0.5 mm 0.79 in20.1 mm
05:45 PM 76.8°F24.9°C 63.3°F17.4°C 63% 7.0 mph WNW11.3 kmh WNW 13.0 mph20.9 kmh 29.63 in1003.4 mb 0.01 in0.3 mm 0.00 in0.0 mm 0.79 in20.1 mm
06:00 PM 76.5°F24.7°C 62.9°F17.2°C 63% 6.0 mph NW9.7 kmh NW 13.0 mph20.9 kmh 29.64 in1003.7 mb 0.01 in0.3 mm 0.00 in0.0 mm 0.79 in20.1 mm
06:15 PM 76.3°F24.6°C 62.8°F17.1°C 63% 5.0 mph NW8.0 kmh NW 10.0 mph16.1 kmh 29.64 in1003.7 mb 0.01 in0.3 mm 0.00 in0.0 mm 0.79 in20.1 mm
06:30 PM 75.6°F24.2°C 61.2°F16.2°C 61% 6.0 mph NW9.7 kmh NW 14.0 mph22.5 kmh 29.65 in1004.1 mb 0.00 in0.0 mm 0.00 in0.0 mm 0.79 in20.1 mm
06:45 PM 74.8°F23.8°C 60.0°F15.6°C 60% 6.0 mph WNW9.7 kmh WNW 13.0 mph20.9 kmh 29.66 in1004.4 mb 0.00 in0.0 mm 0.00 in0.0 mm 0.79 in20.1 mm
07:00 PM 74.5°F23.6°C 59.7°F15.4°C 60% 5.0 mph WNW8.0 kmh WNW 11.0 mph17.7 kmh 29.66 in1004.4 mb 0.00 in0.0 mm 0.00 in0.0 mm 0.79 in20.1 mm
07:15 PM 73.8°F23.2°C 59.5°F15.3°C 61% 4.0 mph W6.4 kmh W 8.0 mph12.9 kmh 29.66 in1004.4 mb 0.00 in0.0 mm 0.00 in0.0 mm 0.79 in20.1 mm
07:30 PM 73.0°F22.8°C 59.7°F15.4°C 63% 3.0 mph W4.8 kmh W 6.0 mph9.7 kmh 29.67 in1004.7 mb 0.00 in0.0 mm 0.00 in0.0 mm 0.79 in20.1 mm
07:45 PM 72.0°F22.2°C 60.0°F15.6°C 66% 1.0 mph W1.6 kmh W 2.0 mph3.2 kmh 29.67 in1004.7 mb 0.00 in0.0 mm 0.00 in0.0 mm 0.79 in20.1 mm
08:00 PM 71.2°F21.8°C 59.3°F15.2°C 66% 2.0 mph W3.2 kmh W 4.0 mph6.4 kmh 29.67 in1004.7 mb 0.00 in0.0 mm 0.00 in0.0 mm 0.79 in20.1 mm
08:15 PM 70.5°F21.4°C 59.0°F15.0°C 67% 1.0 mph W1.6 kmh W 3.0 mph4.8 kmh 29.68 in1005.1 mb 0.00 in0.0 mm 0.00 in0.0 mm 0.79 in20.1 mm
08:30 PM 70.0°F21.1°C 58.9°F14.9°C 68% Calm Calm 2.0 mph3.2 kmh 29.68 in1005.1 mb 0.00 in0.0 mm 0.00 in0.0 mm 0.79 in20.1 mm
08:45 PM 69.3°F20.7°C 58.2°F14.6°C 68% Calm Calm 1.0 mph1.6 kmh 29.69 in1005.4 mb 0.00 in0.0 mm 0.00 in0.0 mm 0.79 in20.1 mm
09:00 PM 68.7°F20.4°C 58.5°F14.7°C 70% Calm Calm 1.0 mph1.6 kmh 29.69 in1005.4 mb 0.00 in0.0 mm 0.00 in0.0 mm 0.79 in20.1 mm
09:15 PM 68.0°F20.0°C 58.6°F14.8°C 72% Calm Calm 1.0 mph1.6 kmh 29.69 in1005.4 mb 0.00 in0.0 mm 0.00 in0.0 mm 0.79 in20.1 mm
09:30 PM 67.6°F19.8°C 58.3°F14.6°C 72% 1.0 mph W1.6 kmh W 4.0 mph6.4 kmh 29.69 in1005.4 mb 0.00 in0.0 mm 0.00 in0.0 mm 0.79 in20.1 mm
09:45 PM 67.5°F19.7°C 58.5°F14.7°C 73% Calm Calm 2.0 mph3.2 kmh 29.69 in1005.4 mb 0.00 in0.0 mm 0.00 in0.0 mm 0.79 in20.1 mm
10:00 PM 67.5°F19.7°C 58.5°F14.7°C 73% Calm Calm 2.0 mph3.2 kmh 29.69 in1005.4 mb 0.00 in0.0 mm 0.00 in0.0 mm 0.79 in20.1 mm
10:15 PM 67.5°F19.7°C 58.9°F14.9°C 74% Calm Calm 1.0 mph1.6 kmh 29.69 in1005.4 mb 0.00 in0.0 mm 0.00 in0.0 mm 0.79 in20.1 mm
10:30 PM 67.3°F19.6°C 59.1°F15.1°C 75% Calm Calm 2.0 mph3.2 kmh 29.70 in1005.8 mb 0.00 in0.0 mm 0.00 in0.0 mm 0.79 in20.1 mm
10:45 PM 67.1°F19.5°C 58.5°F14.7°C 74% Calm Calm 2.0 mph3.2 kmh 29.70 in1005.8 mb 0.00 in0.0 mm 0.00 in0.0 mm 0.79 in20.1 mm
11:00 PM 67.1°F19.5°C 58.2°F14.6°C 73% 2.0 mph W3.2 kmh W 5.0 mph8.0 kmh 29.70 in1005.8 mb 0.00 in0.0 mm 0.00 in0.0 mm 0.78 in19.8 mm
11:15 PM 67.6°F19.8°C 58.7°F14.8°C 73% 2.0 mph W3.2 kmh W 5.0 mph8.0 kmh 29.72 in1006.4 mb 0.00 in0.0 mm 0.00 in0.0 mm 0.78 in19.8 mm
11:30 PM 67.5°F19.7°C 59.3°F15.2°C 75% 1.0 mph W1.6 kmh W 5.0 mph8.0 kmh 29.72 in1006.4 mb 0.00 in0.0 mm 0.00 in0.0 mm 0.78 in19.8 mm
11:45 PM 67.5°F19.7°C 59.3°F15.2°C 75% 2.0 mph W3.2 kmh W 5.0 mph8.0 kmh 29.72 in1006.4 mb 0.00 in0.0 mm 0.00 in0.0 mm 0.78 in19.8 mm